createdAt,value
2018-07-28T00:02:05.402Z,26.70
2018-07-28T00:04:41.407Z,26.64
2018-07-28T00:10:37.218Z,26.58
2018-07-28T00:13:20.771Z,26.59
2018-07-28T00:16:03.521Z,26.59
2018-07-28T00:18:43.043Z,26.57
2018-07-28T00:21:42.682Z,26.49
2018-07-28T00:24:23.271Z,26.50
2018-07-28T00:27:00.703Z,26.55
2018-07-28T00:29:41.946Z,26.51
2018-07-28T00:32:20.656Z,26.47
2018-07-28T00:35:07.544Z,26.45
2018-07-28T00:37:45.628Z,26.36
2018-07-28T00:40:24.817Z,26.35
2018-07-28T00:43:04.410Z,26.33
2018-07-28T00:46:04.739Z,26.36
2018-07-28T00:48:46.689Z,26.31
2018-07-28T00:51:29.692Z,26.24
2018-07-28T00:54:05.951Z,26.21
2018-07-28T00:56:46.035Z,26.17
2018-07-28T00:59:23.635Z,26.23
2018-07-28T01:02:11.596Z,26.21
2018-07-28T01:04:54.698Z,26.20
2018-07-28T01:07:39.237Z,26.19
2018-07-28T01:10:13.540Z,26.13
2018-07-28T01:12:48.078Z,26.05
2018-07-28T01:15:20.735Z,25.97
2018-07-28T01:17:53.489Z,25.99
2018-07-28T01:20:26.699Z,25.90
2018-07-28T01:22:59.877Z,25.79
2018-07-28T01:25:32.425Z,25.80
2018-07-28T01:28:05.773Z,25.89
2018-07-28T01:30:38.506Z,25.92
2018-07-28T01:33:11.378Z,26.09
2018-07-28T01:35:46.119Z,26.17
2018-07-28T01:38:18.974Z,26.17
2018-07-28T01:40:51.651Z,26.17
2018-07-28T01:43:25.844Z,26.03
2018-07-28T01:45:58.914Z,25.85
2018-07-28T01:48:31.737Z,25.68
2018-07-28T01:51:05.008Z,25.59
2018-07-28T01:53:37.862Z,25.55
2018-07-28T01:56:10.707Z,25.53
2018-07-28T01:58:44.882Z,25.63
2018-07-28T02:01:17.705Z,25.62
2018-07-28T02:03:51.470Z,25.49
2018-07-28T02:06:25.360Z,25.29
2018-07-28T02:08:58.030Z,25.17
2018-07-28T02:11:31.922Z,25.15
2018-07-28T02:14:07.707Z,24.94
2018-07-28T02:16:40.706Z,24.76
2018-07-28T02:19:14.114Z,24.56
2018-07-28T02:21:47.686Z,24.38
2018-07-28T02:24:20.506Z,24.18
2018-07-28T02:26:56.414Z,24.05
2018-07-28T02:29:29.744Z,23.91
2018-07-28T02:32:02.588Z,23.83
2018-07-28T02:34:35.343Z,23.73
2018-07-28T02:37:10.504Z,23.56
2018-07-28T02:39:43.303Z,23.48
2018-07-28T02:42:16.180Z,23.36
2018-07-28T02:44:51.359Z,23.34
2018-07-28T02:47:25.084Z,23.42
2018-07-28T02:49:57.937Z,23.53
2018-07-28T02:52:31.179Z,23.70
2018-07-28T02:55:04.582Z,23.76
2018-07-28T02:57:38.233Z,23.82
2018-07-28T03:00:15.203Z,23.80
2018-07-28T03:02:48.313Z,23.91
2018-07-28T03:05:21.678Z,24.11
2018-07-28T03:07:55.046Z,24.47
2018-07-28T03:10:28.077Z,24.44
2018-07-28T03:13:00.685Z,24.28
2018-07-28T03:15:35.667Z,24.18
2018-07-28T03:18:08.829Z,24.13
2018-07-28T03:20:42.218Z,24.05
2018-07-28T03:23:16.755Z,24.03
2018-07-28T03:25:50.560Z,23.90
2018-07-28T03:28:23.225Z,23.83
2018-07-28T03:30:57.413Z,23.78
2018-07-28T03:33:30.191Z,23.61
2018-07-28T03:36:03.330Z,23.52
2018-07-28T03:38:36.570Z,23.49
2018-07-28T03:41:13.402Z,23.28
2018-07-28T03:43:46.030Z,23.18
2018-07-28T03:46:20.114Z,23.12
2018-07-28T03:48:52.905Z,22.93
2018-07-28T03:51:25.570Z,22.82
2018-07-28T03:54:00.022Z,22.78
2018-07-28T03:56:32.845Z,22.74
2018-07-28T03:59:06.338Z,22.81
2018-07-28T04:01:39.002Z,22.85
2018-07-28T04:04:11.793Z,22.74
2018-07-28T04:06:44.314Z,22.76
2018-07-28T04:09:20.385Z,22.70
2018-07-28T04:11:53.583Z,22.58
2018-07-28T04:14:26.480Z,22.52
2018-07-28T04:16:59.203Z,22.43
2018-07-28T04:19:34.210Z,22.30
2018-07-28T04:22:07.277Z,22.20
2018-07-28T04:24:41.595Z,22.18
2018-07-28T04:27:15.478Z,22.20
2018-07-28T04:29:48.190Z,22.12
2018-07-28T04:32:20.764Z,22.06
2018-07-28T04:34:53.767Z,22.02
2018-07-28T04:37:27.340Z,22.01
2018-07-28T04:40:05.001Z,21.93
2018-07-28T04:42:38.862Z,21.92
2018-07-28T04:45:13.886Z,21.99
2018-07-28T04:47:48.174Z,22.00
2018-07-28T04:50:22.906Z,22.03
2018-07-28T04:52:55.635Z,22.06
2018-07-28T04:55:28.883Z,22.15
2018-07-28T04:58:01.513Z,22.22
2018-07-28T05:00:35.840Z,22.23
2018-07-28T05:03:10.538Z,22.21
2018-07-28T05:05:43.220Z,22.29
2018-07-28T05:08:17.524Z,22.38
2018-07-28T05:10:52.578Z,22.41
2018-07-28T05:13:25.689Z,22.54
2018-07-28T05:15:58.470Z,22.61
2018-07-28T05:18:32.421Z,22.67
2018-07-28T05:21:05.338Z,22.80
2018-07-28T05:23:38.035Z,22.98
2018-07-28T05:26:11.242Z,23.33
2018-07-28T05:28:45.540Z,23.63
2018-07-28T05:31:21.835Z,23.95
2018-07-28T05:33:54.493Z,24.22
2018-07-28T05:36:27.946Z,24.44
2018-07-28T05:39:01.153Z,24.59
2018-07-28T05:41:33.863Z,24.73
2018-07-28T05:44:07.564Z,24.75
2018-07-28T05:46:40.941Z,24.74
2018-07-28T05:49:14.167Z,24.61
2018-07-28T05:51:46.726Z,24.56
2018-07-28T05:54:19.802Z,24.56
2018-07-28T05:56:53.059Z,24.52
2018-07-28T05:59:25.726Z,24.45
2018-07-28T06:02:00.190Z,24.36
2018-07-28T06:04:32.901Z,24.27
2018-07-28T06:07:07.560Z,24.21
2018-07-28T06:09:41.771Z,24.22
2018-07-28T06:12:15.958Z,24.21
2018-07-28T06:14:48.801Z,24.17
2018-07-28T06:17:23.726Z,24.13
2018-07-28T06:19:56.509Z,24.09
2018-07-28T06:22:29.123Z,24.04
2018-07-28T06:25:05.268Z,24.03
2018-07-28T06:27:38.965Z,23.99
2018-07-28T06:30:15.181Z,24.09
2018-07-28T06:32:48.246Z,24.12
2018-07-28T06:35:22.024Z,24.05
2018-07-28T06:37:54.935Z,23.95
2018-07-28T06:40:28.990Z,23.60
2018-07-28T06:43:01.942Z,23.01
2018-07-28T06:45:34.631Z,22.44
2018-07-28T06:48:10.103Z,21.65
2018-07-28T06:50:46.909Z,21.13
2018-07-28T06:53:22.986Z,20.86
2018-07-28T06:55:57.491Z,20.72
2018-07-28T06:58:30.419Z,20.64
2018-07-28T07:01:05.170Z,20.73
2018-07-28T07:03:38.986Z,20.88
2018-07-28T07:06:14.766Z,20.99
2018-07-28T07:08:48.503Z,21.08
2018-07-28T07:11:21.275Z,21.16
2018-07-28T07:13:56.395Z,21.28
2018-07-28T07:16:39.119Z,21.48
2018-07-28T07:19:12.496Z,21.59
2018-07-28T07:21:45.595Z,21.70
2018-07-28T07:24:19.879Z,21.73
2018-07-28T07:26:55.295Z,21.83
2018-07-28T07:29:33.370Z,21.96
2018-07-28T07:32:07.967Z,22.15
2018-07-28T07:34:41.845Z,22.26
2018-07-28T07:37:16.666Z,22.26
2018-07-28T07:39:50.595Z,22.36
2018-07-28T07:42:32.803Z,22.40
2018-07-28T07:45:07.207Z,22.35
2018-07-28T07:47:40.796Z,22.31
2018-07-28T07:50:15.110Z,22.27
2018-07-28T07:52:49.265Z,22.38
2018-07-28T07:55:22.711Z,22.49
2018-07-28T07:57:57.001Z,22.66
2018-07-28T08:00:30.302Z,22.85
2018-07-28T08:03:04.085Z,22.94
2018-07-28T08:05:37.816Z,23.04
2018-07-28T08:08:13.821Z,23.22
2018-07-28T08:10:48.384Z,23.28
2018-07-28T08:13:21.193Z,23.36
2018-07-28T08:15:58.299Z,23.36
2018-07-28T08:18:31.163Z,23.54
2018-07-28T08:21:03.925Z,23.95
2018-07-28T08:23:40.388Z,23.96
2018-07-28T08:26:13.232Z,23.87
2018-07-28T08:28:50.416Z,23.77
2018-07-28T08:31:24.148Z,23.61
2018-07-28T08:33:56.998Z,23.54
2018-07-28T08:36:30.197Z,23.55
2018-07-28T08:39:05.246Z,23.50
2018-07-28T08:41:39.449Z,23.32
2018-07-28T08:44:13.986Z,23.21
2018-07-28T08:46:47.024Z,23.12
2018-07-28T08:49:20.681Z,23.06
2018-07-28T08:51:54.034Z,23.09
2018-07-28T08:54:28.758Z,23.23
2018-07-28T08:57:03.100Z,23.53
2018-07-28T08:59:37.038Z,23.69
2018-07-28T09:02:11.392Z,23.82
2018-07-28T09:04:44.438Z,23.95
2018-07-28T09:07:19.110Z,24.08
2018-07-28T09:09:53.323Z,24.38
2018-07-28T09:12:26.072Z,24.49
2018-07-28T09:14:59.496Z,24.35
2018-07-28T09:17:33.853Z,24.36
2018-07-28T09:20:08.781Z,24.49
2018-07-28T09:22:42.516Z,24.66
2018-07-28T09:25:28.948Z,24.77
2018-07-28T09:28:03.430Z,25.01
2018-07-28T09:30:36.288Z,25.13
2018-07-28T09:33:10.532Z,25.32
2018-07-28T09:35:44.769Z,25.23
2018-07-28T09:38:19.758Z,25.47
2018-07-28T09:40:55.298Z,25.89
2018-07-28T09:43:28.105Z,26.20
2018-07-28T09:46:01.760Z,26.56
2018-07-28T09:48:44.935Z,26.67
2018-07-28T09:51:18.873Z,26.94
2018-07-28T09:53:59.677Z,27.21
2018-07-28T09:56:38.540Z,27.21
2018-07-28T09:59:13.357Z,27.67
2018-07-28T10:01:46.615Z,28.01
2018-07-28T10:04:20.497Z,27.95
2018-07-28T10:06:53.314Z,28.03
2018-07-28T10:09:26.016Z,28.43
2018-07-28T10:11:59.156Z,28.80
2018-07-28T10:14:32.671Z,29.00
2018-07-28T10:17:06.747Z,28.91
2018-07-28T10:19:42.538Z,28.81
2018-07-28T10:22:19.597Z,28.42
2018-07-28T10:24:55.026Z,28.14
2018-07-28T10:27:31.927Z,27.77
2018-07-28T10:30:08.725Z,27.62
2018-07-28T10:33:06.415Z,27.02
2018-07-28T10:35:41.091Z,26.83
2018-07-28T10:38:15.890Z,26.68
2018-07-28T10:40:50.283Z,26.88
2018-07-28T10:43:24.118Z,27.01
2018-07-28T10:45:57.511Z,27.20
2018-07-28T10:48:31.983Z,27.24
2018-07-28T10:51:07.006Z,27.66
2018-07-28T10:53:43.378Z,28.05
2018-07-28T10:56:18.544Z,28.39
2018-07-28T10:58:55.470Z,28.54
2018-07-28T11:01:29.031Z,28.32
2018-07-28T11:04:02.464Z,28.84
2018-07-28T11:06:54.128Z,29.39
2018-07-28T11:09:40.680Z,30.00
2018-07-28T11:12:17.291Z,29.47
2018-07-28T11:14:53.175Z,29.33
2018-07-28T11:17:26.795Z,29.85
2018-07-28T11:20:06.968Z,30.29
2018-07-28T11:22:40.823Z,30.62
2018-07-28T11:25:13.850Z,30.41
2018-07-28T11:27:48.571Z,30.25
2018-07-28T11:30:21.822Z,30.35
2018-07-28T11:33:18.258Z,30.81
2018-07-28T11:36:13.681Z,31.15
2018-07-28T11:39:10.515Z,31.22
2018-07-28T11:42:06.353Z,31.08
2018-07-28T11:45:15.353Z,30.93
2018-07-28T11:47:54.106Z,30.59
2018-07-28T11:50:32.635Z,30.33
2018-07-28T11:53:13.466Z,29.70
2018-07-28T11:55:51.695Z,29.29
2018-07-28T11:58:29.700Z,29.43
2018-07-28T12:01:04.674Z,29.57
2018-07-28T12:03:38.374Z,29.64
2018-07-28T12:06:11.523Z,29.61
2018-07-28T12:08:44.766Z,29.61
2018-07-28T12:11:17.471Z,30.31
2018-07-28T12:13:50.442Z,30.97
2018-07-28T12:16:24.849Z,30.81
2018-07-28T12:18:59.895Z,31.00
2018-07-28T12:21:33.449Z,30.92
2018-07-28T12:24:07.084Z,30.44
2018-07-28T12:26:41.027Z,30.34
2018-07-28T12:29:15.462Z,30.30
2018-07-28T12:31:52.099Z,30.44
2018-07-28T12:34:27.306Z,30.45
2018-07-28T12:37:00.624Z,30.19
2018-07-28T12:39:34.067Z,30.62
2018-07-28T12:42:08.698Z,30.83
2018-07-28T12:44:42.538Z,30.48
2018-07-28T12:47:18.637Z,30.21
2018-07-28T12:49:51.630Z,29.91
2018-07-28T12:52:26.201Z,30.06
2018-07-28T12:55:00.548Z,30.21
2018-07-28T12:57:36.792Z,30.16
2018-07-28T13:00:14.151Z,29.68
2018-07-28T13:02:47.367Z,29.40
2018-07-28T13:05:20.754Z,29.49
2018-07-28T13:07:54.970Z,29.53
2018-07-28T13:10:29.095Z,29.36
2018-07-28T13:13:03.097Z,29.30
2018-07-28T13:15:36.834Z,29.64
2018-07-28T13:18:11.327Z,29.79
2018-07-28T13:20:55.711Z,30.16
2018-07-28T13:23:33.325Z,30.45
2018-07-28T13:26:07.364Z,31.10
2018-07-28T13:28:41.366Z,31.46
2018-07-28T13:31:16.319Z,31.28
2018-07-28T13:33:51.297Z,31.21
2018-07-28T13:36:25.847Z,31.01
2018-07-28T13:39:01.190Z,31.06
2018-07-28T13:41:36.208Z,30.79
2018-07-28T13:44:11.260Z,30.39
2018-07-28T13:46:46.865Z,30.18
2018-07-28T13:49:24.356Z,30.48
2018-07-28T13:51:58.798Z,30.80
2018-07-28T13:54:32.527Z,31.25
2018-07-28T13:57:17.753Z,31.44
2018-07-28T13:59:51.587Z,31.76
2018-07-28T14:02:29.376Z,31.30
2018-07-28T14:05:05.041Z,31.47
2018-07-28T14:07:40.455Z,31.04
2018-07-28T14:10:13.311Z,30.82
2018-07-28T14:12:53.953Z,30.86
2018-07-28T14:15:26.790Z,30.71
2018-07-28T14:18:02.975Z,30.15
2018-07-28T14:20:38.007Z,30.07
2018-07-28T14:23:11.796Z,29.95
2018-07-28T14:25:46.036Z,29.76
2018-07-28T14:28:20.921Z,29.85
2018-07-28T14:30:53.902Z,30.09
2018-07-28T14:33:28.598Z,30.13
2018-07-28T14:36:03.647Z,30.11
2018-07-28T14:38:37.361Z,30.06
2018-07-28T14:41:11.220Z,30.27
2018-07-28T14:43:44.851Z,30.35
2018-07-28T14:46:19.050Z,30.48
2018-07-28T14:48:52.917Z,30.57
2018-07-28T14:51:29.798Z,30.84
2018-07-28T14:54:03.679Z,30.65
2018-07-28T14:56:37.244Z,30.33
2018-07-28T14:59:11.318Z,30.21
2018-07-28T15:01:45.110Z,29.84
2018-07-28T15:04:19.762Z,29.75
2018-07-28T15:06:52.866Z,29.70
2018-07-28T15:09:29.442Z,29.81
2018-07-28T15:12:03.983Z,29.85
2018-07-28T15:14:39.935Z,30.05
2018-07-28T15:17:13.527Z,29.95
2018-07-28T15:19:46.866Z,29.77
2018-07-28T15:22:20.937Z,29.63
2018-07-28T15:24:58.188Z,29.44
2018-07-28T15:27:33.835Z,29.07
2018-07-28T15:30:10.120Z,28.90
2018-07-28T15:32:43.797Z,28.58
2018-07-28T15:35:18.010Z,28.51
2018-07-28T15:37:53.502Z,28.61
2018-07-28T15:40:26.793Z,28.91
2018-07-28T15:43:00.804Z,28.87
2018-07-28T15:45:36.051Z,28.53
2018-07-28T15:48:09.830Z,28.45
2018-07-28T15:50:49.258Z,28.64
2018-07-28T15:53:23.170Z,29.02
2018-07-28T15:55:56.524Z,29.32
2018-07-28T15:58:31.300Z,29.35
2018-07-28T16:01:08.805Z,29.74
2018-07-28T16:03:45.331Z,30.31
2018-07-28T16:06:20.452Z,30.26
2018-07-28T16:12:05.399Z,30.01
2018-07-28T16:14:39.614Z,30.53
2018-07-28T16:17:13.129Z,30.79
2018-07-28T16:19:47.440Z,30.87
2018-07-28T16:22:25.256Z,30.62
2018-07-28T16:25:08.060Z,29.90
2018-07-28T16:27:43.243Z,29.10
2018-07-28T16:30:19.671Z,28.83
2018-07-28T16:32:58.786Z,28.67
2018-07-28T16:35:32.578Z,28.62
2018-07-28T16:38:07.710Z,28.64
2018-07-28T16:40:46.103Z,28.42
2018-07-28T16:43:19.238Z,28.26
2018-07-28T16:45:53.576Z,28.16
2018-07-28T16:48:27.015Z,28.13
2018-07-28T16:51:02.766Z,28.10
2018-07-28T16:53:39.783Z,28.01
2018-07-28T16:56:13.242Z,27.89
2018-07-28T16:58:48.475Z,27.84
2018-07-28T17:01:21.987Z,27.82
2018-07-28T17:03:57.538Z,27.67
2018-07-28T17:06:33.232Z,27.58
2018-07-28T17:09:11.790Z,27.50
2018-07-28T17:11:45.988Z,27.30
2018-07-28T17:14:22.055Z,27.20
2018-07-28T17:16:58.671Z,26.93
2018-07-28T17:19:37.016Z,26.76
2018-07-28T17:22:11.587Z,26.62
2018-07-28T17:24:45.557Z,26.45
2018-07-28T17:27:30.808Z,26.38
2018-07-28T17:30:23.618Z,26.31
2018-07-28T17:33:01.283Z,26.36
2018-07-28T17:36:19.895Z,26.37
2018-07-28T17:38:56.375Z,26.30
2018-07-28T17:41:31.243Z,26.42
2018-07-28T17:44:07.227Z,26.75
2018-07-28T17:46:55.329Z,27.04
2018-07-28T17:49:29.171Z,27.24
2018-07-28T17:52:08.295Z,27.18
2018-07-28T17:54:45.597Z,27.18
2018-07-28T17:57:22.140Z,27.23
2018-07-28T17:59:58.938Z,27.20
2018-07-28T18:02:36.916Z,27.14
2018-07-28T18:05:27.447Z,27.10
2018-07-28T18:08:03.895Z,26.99
2018-07-28T18:10:37.743Z,26.87
2018-07-28T18:13:11.825Z,26.77
2018-07-28T18:15:46.448Z,26.79
2018-07-28T18:18:20.059Z,26.73
2018-07-28T18:20:52.982Z,26.59
2018-07-28T18:23:28.406Z,26.43
2018-07-28T18:26:01.297Z,26.23
2018-07-28T18:28:34.218Z,26.04
2018-07-28T18:31:14.952Z,25.86
2018-07-28T18:33:49.717Z,25.71
2018-07-28T18:36:23.051Z,25.56
2018-07-28T18:38:55.747Z,25.43
2018-07-28T18:41:30.207Z,25.35
2018-07-28T18:44:04.866Z,25.25
2018-07-28T18:46:38.674Z,25.14
2018-07-28T18:49:11.642Z,25.08
2018-07-28T18:51:46.902Z,24.99
2018-07-28T18:54:27.287Z,24.90
2018-07-28T18:57:02.487Z,24.86
2018-07-28T18:59:38.206Z,24.80
2018-07-28T19:02:14.007Z,24.77
2018-07-28T19:04:55.266Z,24.76
2018-07-28T19:07:28.731Z,24.78
2018-07-28T19:10:04.718Z,24.79
2018-07-28T19:12:42.753Z,24.70
2018-07-28T19:15:17.153Z,24.56
2018-07-28T19:18:05.268Z,24.40
2018-07-28T19:20:39.706Z,24.23
2018-07-28T19:23:19.511Z,24.06
2018-07-28T19:25:55.083Z,23.94
2018-07-28T19:28:33.638Z,23.88
2018-07-28T19:31:10.733Z,23.84
2018-07-28T19:33:46.275Z,23.79
2018-07-28T19:36:24.821Z,23.77
2018-07-28T19:39:01.360Z,23.69
2018-07-28T19:41:41.744Z,23.62
2018-07-28T19:44:24.833Z,23.52
2018-07-28T19:47:01.873Z,23.38
2018-07-28T19:49:36.630Z,23.26
2018-07-28T19:52:14.791Z,23.17
2018-07-28T19:54:53.792Z,23.03
2018-07-28T19:57:32.258Z,22.95
2018-07-28T20:00:07.131Z,22.87
2018-07-28T20:02:39.844Z,22.81
2018-07-28T20:05:13.060Z,22.67
2018-07-28T20:07:48.811Z,22.60
2018-07-28T20:10:26.433Z,22.50
2018-07-28T20:13:01.955Z,22.53
2018-07-28T20:15:35.809Z,22.47
2018-07-28T20:18:11.506Z,22.46
2018-07-28T20:20:46.997Z,22.49
2018-07-28T20:23:35.322Z,22.37
2018-07-28T20:26:17.662Z,22.36
2018-07-28T20:28:55.353Z,22.32
2018-07-28T20:31:33.775Z,22.24
2018-07-28T20:34:10.177Z,22.13
2018-07-28T20:36:46.327Z,22.11
2018-07-28T20:39:23.931Z,21.98
2018-07-28T20:41:59.477Z,21.87
2018-07-28T20:44:37.492Z,21.79
2018-07-28T20:47:14.466Z,21.78
2018-07-28T20:49:48.355Z,21.79
2018-07-28T20:52:25.322Z,21.84
2018-07-28T20:55:02.304Z,21.82
2018-07-28T20:57:38.298Z,21.84
2018-07-28T21:00:15.870Z,21.70
2018-07-28T21:02:51.686Z,21.55
2018-07-28T21:05:34.859Z,21.56
2018-07-28T21:08:12.051Z,21.45
2018-07-28T21:10:46.472Z,21.40
2018-07-28T21:13:21.084Z,21.35
2018-07-28T21:15:59.566Z,21.39
2018-07-28T21:18:38.042Z,21.28
2018-07-28T21:21:12.482Z,21.17
2018-07-28T21:23:47.474Z,21.13
2018-07-28T21:26:24.321Z,21.17
2018-07-28T21:28:57.681Z,21.19
2018-07-28T21:31:31.328Z,21.16
2018-07-28T21:34:05.660Z,21.14
2018-07-28T21:36:40.820Z,21.09
2018-07-28T21:39:14.386Z,20.89
2018-07-28T21:41:49.475Z,20.67
2018-07-28T21:44:22.203Z,20.54
2018-07-28T21:46:59.136Z,20.44
2018-07-28T21:49:34.745Z,20.32
2018-07-28T21:52:07.982Z,20.16
2018-07-28T21:54:42.649Z,20.03
2018-07-28T21:57:16.995Z,19.96
2018-07-28T21:59:50.487Z,19.81
2018-07-28T22:02:24.135Z,19.73
2018-07-28T22:05:00.349Z,19.63
2018-07-28T22:07:33.435Z,19.54
2018-07-28T22:10:07.074Z,19.45
2018-07-28T22:12:42.718Z,19.39
2018-07-28T22:15:16.508Z,19.31
2018-07-28T22:17:49.879Z,19.33
2018-07-28T22:20:26.215Z,19.37
2018-07-28T22:22:59.898Z,19.34
2018-07-28T22:25:34.164Z,19.30
2018-07-28T22:28:08.209Z,19.21
2018-07-28T22:30:44.310Z,19.15
2018-07-28T22:33:17.901Z,19.16
2018-07-28T22:35:52.481Z,19.18
2018-07-28T22:38:26.250Z,19.18
2018-07-28T22:41:01.315Z,19.31
2018-07-28T22:43:34.359Z,19.35
2018-07-28T22:46:07.933Z,19.55
2018-07-28T22:48:42.203Z,19.65
2018-07-28T22:51:20.194Z,19.65
2018-07-28T22:53:53.598Z,19.48
2018-07-28T22:56:32.205Z,19.41
2018-07-28T22:59:06.161Z,19.32
2018-07-28T23:01:39.510Z,19.26
2018-07-28T23:04:12.332Z,19.23
2018-07-28T23:06:45.176Z,19.18
2018-07-28T23:09:19.974Z,19.26
2018-07-28T23:11:55.747Z,19.36
2018-07-28T23:14:28.491Z,19.34
2018-07-28T23:17:02.722Z,19.17
2018-07-28T23:19:40.929Z,19.02
2018-07-28T23:22:15.698Z,18.93
2018-07-28T23:24:49.492Z,18.83
2018-07-28T23:27:23.474Z,18.73
2018-07-28T23:29:57.287Z,18.71
2018-07-28T23:32:30.308Z,18.81
2018-07-28T23:35:05.664Z,18.72
2018-07-28T23:37:40.056Z,18.61
2018-07-28T23:40:12.736Z,18.53
2018-07-28T23:42:48.003Z,18.62
2018-07-28T23:45:22.475Z,18.55
2018-07-28T23:47:56.164Z,18.59
2018-07-28T23:50:31.627Z,18.58
2018-07-28T23:53:12.078Z,18.48
2018-07-28T23:55:44.718Z,18.44
2018-07-28T23:58:18.712Z,18.44
